Nearby METAR Reports

 

KMDQ - Huntsville/Madis, Alabama, USA
Distance from station: S 20mi, 32km
Updated: Tue, 22-Sep-2020 7:15am CDT
Clear
Clear
 Wind from calm
Wind: Calm
Temperature: 46°F , 8°C
Dew Point: 45°F , 7°C
Humidity: 93%
Barometer: 30.28 inHg , 1025.4 hPa
Clouds: Clear
Visibility: 10 miles , 16 km
2020/09/22 12:15 KMDQ 221215Z AUTO 00000KT 10SM CLR 08/07 A3028 RMK A02 T00790072
KTHA - Tullahoma, Tennessee, USA
Distance from station: NE 24mi, 39km
Updated: Tue, 22-Sep-2020 7:15am CDT
Clear
Clear
 Wind from calm
Wind: Calm
Temperature: 46°F , 8°C
Dew Point: 43°F , 6°C
Humidity: 87%
Barometer: 30.28 inHg , 1025.4 hPa
Clouds: Clear
Visibility: 10 miles , 16 km
2020/09/22 12:15 KTHA 221215Z AUTO 00000KT 10SM CLR 08/06 A3028 RMK A01
 
KBGF - Winchester, Tennessee, USA
Distance from station: E 29mi, 46km
Updated: Tue, 22-Sep-2020 7:15am CDT
Clear
Clear
 Wind from SE
Wind: SE 6 mph , 9 km/h
Temperature: 54°F , 12°C
Dew Point: 46°F , 8°C
Humidity: 77%
Barometer: 30.28 inHg , 1025.4 hPa
Clouds: Clear
Visibility: 10 miles , 16 km
2020/09/22 12:15 KBGF 221215Z AUTO 13005KT 10SM CLR 12/08 A3028 RMK A01
KHUA - Redstone Arsenal, Alabama, USA
Distance from station: S 33mi, 53km
Updated: Tue, 22-Sep-2020 6:58am CDT
Clear
Clear
 Wind from SSE
Wind: SSE 8 mph , 13 km/h
Temperature: 57°F , 14°C
Dew Point: 48°F , 9°C
Humidity: 72%
Barometer: 30.26 inHg , 1024.7 hPa
Clouds: Clear
Visibility: 9 miles , 14 km
2020/09/22 11:58 KHUA 221158Z AUTO 15007KT 9SM CLR 14/09 A3026 RMK AO2 RAB46E47 SLP246 P0000 60000 T01360086 10153 20131 52010
 
KHSV - Huntsville, Alabama, USA
Distance from station: SSW 37mi, 59km
Updated: Tue, 22-Sep-2020 6:53am CDT
Partly cloudy
Partly cloudy
 Wind from ESE
Wind: ESE 7 mph , 11 km/h
Temperature: 52°F , 11°C
Dew Point: 46°F , 8°C
Humidity: 82%
Barometer: 30.27 inHg , 1025.1 hPa
Clouds: Partly cloudy
Visibility: 10 miles , 16 km
Cloud details: Few Clouds 20000 ft
Partly cloudy 25000 ft
2020/09/22 11:53 KHSV 221153Z 11006KT 10SM FEW200 SCT250 11/08 A3027 RMK AO2 SLP249 T01060078 10122 20106 51010
KDCU - Decatur, Alabama, USA
Distance from station: SSW 41mi, 66km
Updated: Tue, 22-Sep-2020 6:53am CDT
Clear
Clear
 Wind from E
Wind: E 3 mph , 6 km/h
Temperature: 52°F , 11°C
Dew Point: 48°F , 9°C
Humidity: 88%
Barometer: 30.28 inHg , 1025.4 hPa
Clouds: Clear
Visibility: 10 miles , 16 km
2020/09/22 11:53 KDCU 221153Z AUTO 10003KT 10SM CLR 11/09 A3028 RMK AO2 SLP252 T01060089 10117 20083 53008
 
KMRC - Columbia, Tennessee, USA
Distance from station: NW 44mi, 71km
Updated: Tue, 22-Sep-2020 7:15am CDT
Clear
Clear
 Wind from calm
Wind: Calm
Temperature: 46°F , 8°C
Dew Point: 46°F , 8°C
Humidity: 100%
Barometer: 30.27 inHg , 1025.1 hPa
Clouds: Clear
Visibility: 9 miles , 14 km
2020/09/22 12:15 KMRC 221215Z AUTO 00000KT 9SM CLR 08/08 A3027 RMK A01
K4A6 - Scottsboro, Alabama, USA
Distance from station: SE 46mi, 74km
Updated: Tue, 22-Sep-2020 7:15am CDT
Clear
Clear
 Wind from calm
Wind: Calm
Temperature: 48°F , 9°C
Dew Point: 48°F , 9°C
Humidity: 100%
Barometer: 30.31 inHg , 1026.4 hPa
Clouds: Clear
Visibility: 8 miles , 13 km
2020/09/22 12:15 K4A6 221215Z AUTO 00000KT 8SM CLR 09/09 A3031 RMK AO2
 
K9A4 - Courtland, Alabama, USA
Distance from station: SW 55mi, 89km
Updated: Thu, 22-Aug-2013 2:15pm CDT
NOT Current
Clear
Clear
 Wind from NNE
Wind: NNE 6 mph , 9 km/h
Temperature: 84°F , 29°C
Heat Index: 89°F , 32°C
Dew Point: 72°F , 22°C
Humidity: 66%
Barometer: 30.10 inHg , 1019.3 hPa
Clouds: Clear
Visibility: 10 miles , 16 km
2013/08/22 19:15 K9A4 221915Z AUTO 03005KT 10SM CLR 29/22 A3010 RMK AO2
KMQY - Smyrna, Tennessee, USA
Distance from station: N 60mi, 96km
Updated: Tue, 22-Sep-2020 6:56am CDT
Clear
Clear
 Wind from calm
Wind: Calm
Temperature: 46°F , 8°C
Dew Point: 46°F , 8°C
Humidity: 100%
Barometer: 30.30 inHg , 1026.1 hPa
Clouds: Clear
Visibility: 10 miles , 16 km
2020/09/22 11:56 KMQY 221156Z 00000KT 10SM CLR 08/08 A3030 RMK AO2 SLP258 7//// T00830078 10117 20083 $
 
K3A1 - Cullman/Folsom F, Alabama, USA
Distance from station: SSW 63mi, 102km
Updated: Mon, 01-Jul-2013 4:35pm CDT
NOT Current
Partly cloudy
Partly cloudy
 Wind from WNW
Wind: WNW 7 mph , 11 km/h
Temperature: 82°F , 28°C
Heat Index: 83°F , 28°C
Dew Point: 63°F , 17°C
Humidity: 51%
Barometer: 29.87 inHg , 1011.5 hPa
Clouds: Partly cloudy
Visibility: 10 miles , 16 km
Cloud details: Partly cloudy 4600 ft
Partly cloudy 6000 ft
Partly cloudy 7000 ft
2013/07/01 21:35 K3A1 012135Z AUTO 30006KT 10SM SCT046 SCT060 SCT070 28/17 A2987 RMK AO2 T02780172
KMSL - Muscle Shoal, Alabama, USA
Distance from station: WSW 65mi, 104km
Updated: Tue, 22-Sep-2020 6:53am CDT
Clear
Clear
 Wind from E
Wind: E 5 mph , 7 km/h
Temperature: 54°F , 12°C
Dew Point: 48°F , 9°C
Humidity: 82%
Barometer: 30.26 inHg , 1024.7 hPa
Clouds: Clear
Visibility: 10 miles , 16 km
2020/09/22 11:53 KMSL 221153Z AUTO 09004KT 10SM CLR 12/09 A3026 RMK AO2 SLP243 T01170089 10139 20111 53005
 
K8A0 - Albertville Muni, Alabama, USA
Distance from station: SSE 66mi, 106km
Updated: Tue, 22-Sep-2020 7:15am CDT
Clear
Clear
 Wind from ESE
Wind: ESE 5 mph , 7 km/h
Temperature: 52°F , 11°C
Dew Point: 46°F , 8°C
Humidity: 82%
Barometer: 30.29 inHg , 1025.7 hPa
Clouds: Clear
Visibility: 10 miles , 16 km
2020/09/22 12:15 K8A0 221215Z AUTO 11004KT 10SM CLR 11/08 A3029 RMK AO2
KBNA - Nashville, Tennessee, USA
Distance from station: N 67mi, 108km
Updated: Tue, 22-Sep-2020 6:53am CDT
Mostly cloudy
Mostly cloudy
 Wind from calm
Wind: Calm
Temperature: 54°F , 12°C
Dew Point: 46°F , 8°C
Humidity: 77%
Barometer: 30.30 inHg , 1026.1 hPa
Clouds: Mostly cloudy
Visibility: 10 miles , 16 km
Cloud details: Few Clouds 20000 ft
Mostly cloudy 25000 ft
2020/09/22 11:53 KBNA 221153Z 00000KT 10SM FEW200 BKN250 12/08 A3030 RMK AO2 SLP257 T01220083 10133 20111 53005
 
K4A9 - Ft Payne/Isbell, Alabama, USA
Distance from station: SE 68mi, 109km
Updated: Tue, 22-Sep-2020 7:15am CDT
Clear
Clear
 Wind from N
Wind: N 5 mph , 7 km/h
Temperature: 54°F , 12°C
Dew Point: 46°F , 8°C
Humidity: 77%
Barometer: 30.30 inHg , 1026.1 hPa
Clouds: Clear
Visibility: 10 miles , 16 km
2020/09/22 12:15 K4A9 221215Z AUTO 35004KT 10SM CLR 12/08 A3030 RMK AO2 T01160076